METAR Data
IDs: Format: Raw Decoded Include TAF

Data at: 2122 UTC 08 Aug 2020

KERV 082115Z AUTO 15010KT 10SM SCT060 SCT075 34/18 A3007 RMK AO2 T03360179
KERV 082055Z AUTO 14012G17KT 10SM BKN060 35/18 A3008 RMK AO2 T03450183
KERV 082035Z AUTO 16010G15KT 10SM SCT060 33/18 A3009 RMK AO2 T03310180
KERV 082015Z AUTO 16011G16KT 10SM SCT055 34/18 A3009 RMK AO2 T03380181
KERV 081955Z AUTO 16008G16KT 140V210 10SM SCT055 SCT065 SCT075 34/19 A3010 RMK AO2 T03380185
KERV 081935Z AUTO 18009KT 10SM SCT050 SCT065 BKN075 34/19 A3011 RMK AO2 T03390192
KERV 081915Z AUTO 21011G15KT 10SM SCT050 33/19 A3011 RMK AO2 T03310189
KERV 081855Z AUTO 18009G15KT 10SM SCT050 SCT060 33/20 A3012 RMK AO2 T03310197
KERV 081835Z AUTO 19007KT 10SM SCT060 33/20 A3013 RMK AO2 T03310204
KERV 081815Z AUTO 17008KT 10SM SCT048 BKN060 32/20 A3013 RMK AO2 T03180201
KERV 081755Z AUTO 19009G15KT 10SM SCT044 SCT050 32/21 A3014 RMK AO2 T03220208 10322 20233
KERV 081735Z AUTO 19011G15KT 10SM SCT044 SCT050 31/20 A3014 RMK AO2 T03070201

KT82 082115Z AUTO 13008KT 120V180 10SM SCT070 34/14 A3008 RMK AO2 T03430142
KT82 082055Z AUTO 14006KT 10SM SCT060 34/14 A3008 RMK AO2 T03360143
KT82 082035Z AUTO 20009G15KT 10SM BKN060 34/15 A3009 RMK AO2 T03390149
KT82 082015Z AUTO 18009G14KT 10SM SCT060 33/15 A3009 RMK AO2 T03300152
KT82 081955Z AUTO 17009G14KT 10SM SCT060 33/15 A3010 RMK AO2 T03320152
KT82 081935Z AUTO 18007KT 10SM BKN060 32/16 A3010 RMK AO2 T03210159
KT82 081915Z AUTO 18006KT 10SM BKN065 32/16 A3011 RMK AO2 T03180157
KT82 081855Z AUTO 19008KT 10SM BKN050 32/16 A3012 RMK AO2 T03180159
KT82 081835Z AUTO 20009G14KT 10SM BKN050 31/17 A3013 RMK AO2 T03110168
KT82 081815Z AUTO 18010KT 10SM BKN050 31/17 A3013 RMK AO2 T03130170
KT82 081755Z AUTO 21007KT 10SM BKN048 31/17 A3014 RMK AO2 T03090168 10314 20217
KT82 081735Z AUTO 19007KT 160V220 10SM BKN048 31/17 A3014 RMK AO2 T03080172

KHDO 082051Z AUTO 17011G18KT 10SM FEW070 36/19 A3003 RMK AO2 SLP152 T03610189 58021
KHDO 081951Z AUTO 18008G15KT 10SM CLR 34/19 A3005 RMK AO2 SLP159 T03440189
KHDO 081851Z AUTO 15011G16KT 10SM FEW050 FEW065 34/20 A3008 RMK AO2 SLP167 T03390200
KHDO 081751Z AUTO 14010G15KT 10SM CLR 33/21 A3010 RMK AO2 SLP174 T03280206 10328 20256 58009